F/V Oceanie — FVBW — position and weather

sailwx.info

Track history (hours):
 
Tides and Currents Weather Stations Pressure Air Temp Water Temp Dewpoint Dewpoint Depression Visibility Wind Speed Wind Dir Waves Ship Positions

F/V Oceanie

Last reported at 2015-Mar-28 02:11 UTC. Time now 2015-Mar-30 23:00 UTC.
Position N 47°44' W 003°22'.

Length 16 m.

Type: Fishing. MMSI: 228370000.

Date/timePositionNaut miles runAvg speedWind from/ knotsBaromVisibWave heightAir tempDewpointWater temp
2015-Mar-28 02:11N 47°44' W 003°22'1 1.4
2015-Mar-28 01:33N 47°43' W 003°22'9 8.5
2015-Mar-28 00:33N 47°39' W 003°33'1 0.0
2015-Mar-27 01:33N 47°38' W 003°34'9 9.0
2015-Mar-27 00:33N 47°42' W 003°22'1 1.5
2015-Mar-26 23:33N 47°44' W 003°22'6 6.3
2015-Mar-26 22:33N 47°40' W 003°30'7 0.2
2015-Mar-25 05:15N 47°34' W 003°26'6 8.8
2015-Mar-25 04:33N 47°39' W 003°22'5 4.7
2015-Mar-25 03:33N 47°44' W 003°22'0 0.0
2015-Mar-25 02:33N 47°44' W 003°22'0 0.0
2015-Mar-25 01:33N 47°44' W 003°22'0 0.1
2015-Mar-25 00:33N 47°44' W 003°22'0 0.1
2015-Mar-24 23:33N 47°44' W 003°22'5 4.5
2015-Mar-24 22:33N 47°41' W 003°27'18 0.7
2015-Mar-23 20:16N 47°23' W 003°21'7 9.4
2015-Mar-23 19:30N 47°30' W 003°22'9 9.7
2015-Mar-23 18:33N 47°39' W 003°22'5 4.7
2015-Mar-23 17:33N 47°44' W 003°22'  
2015-Mar-21 03:11N 47°44' W 003°22'0 0.0
2015-Mar-21 02:33N 47°44' W 003°22'4 3.5
2015-Mar-21 01:34N 47°41' W 003°25'15 0.5
2015-Mar-19 19:11N 47°28' W 003°36'14 0.8
2015-Mar-19 01:33N 47°40' W 003°28'5 5.2
2015-Mar-19 00:34N 47°44' W 003°22'5 4.8
2015-Mar-18 23:33N 47°40' W 003°27'16 0.9
2015-Mar-18 06:30N 47°28' W 003°41'  
Track history (hours):
 
Tides and Currents Weather Stations Pressure Air Temp Water Temp Dewpoint Dewpoint Depression Visibility Wind Speed Wind Dir Waves Ship Positions

F/V Oceanie

Last reported at 2015-Mar-28 02:11 UTC. Time now 2015-Mar-30 23:00 UTC.
Position N 47°44' W 003°22'.

Length 16 m.

Type: Fishing. MMSI: 228370000.

Date/timePositionNaut miles runAvg speedWind from/ knotsBaromVisibWave heightAir tempDewpointWater temp
2015-Mar-28 02:11N 47°44' W 003°22'1 1.4
2015-Mar-28 01:33N 47°43' W 003°22'9 8.5
2015-Mar-28 00:33N 47°39' W 003°33'1 0.0
2015-Mar-27 01:33N 47°38' W 003°34'9 9.0
2015-Mar-27 00:33N 47°42' W 003°22'1 1.5
2015-Mar-26 23:33N 47°44' W 003°22'6 6.3
2015-Mar-26 22:33N 47°40' W 003°30'7 0.2
2015-Mar-25 05:15N 47°34' W 003°26'6 8.8
2015-Mar-25 04:33N 47°39' W 003°22'5 4.7
2015-Mar-25 03:33N 47°44' W 003°22'0 0.0
2015-Mar-25 02:33N 47°44' W 003°22'0 0.0
2015-Mar-25 01:33N 47°44' W 003°22'0 0.1
2015-Mar-25 00:33N 47°44' W 003°22'0 0.1
2015-Mar-24 23:33N 47°44' W 003°22'5 4.5
2015-Mar-24 22:33N 47°41' W 003°27'18 0.7
2015-Mar-23 20:16N 47°23' W 003°21'7 9.4
2015-Mar-23 19:30N 47°30' W 003°22'9 9.7
2015-Mar-23 18:33N 47°39' W 003°22'5 4.7
2015-Mar-23 17:33N 47°44' W 003°22'  
2015-Mar-21 03:11N 47°44' W 003°22'0 0.0
2015-Mar-21 02:33N 47°44' W 003°22'4 3.5
2015-Mar-21 01:34N 47°41' W 003°25'15 0.5
2015-Mar-19 19:11N 47°28' W 003°36'14 0.8
2015-Mar-19 01:33N 47°40' W 003°28'5 5.2
2015-Mar-19 00:34N 47°44' W 003°22'5 4.8
2015-Mar-18 23:33N 47°40' W 003°27'16 0.9
2015-Mar-18 06:30N 47°28' W 003°41'  

Dump ship's entire track history